Impacts TAF Board
For situational awareness. Not to be used for flight planning purposes.
IDs:

KINK - Wink/Winkler Cnty, TX, US

Issued at 2221 UTC 02 Aug 2021
Updated at 2233 UTC 02 Aug 2021
Potential Impact None Slight Moderate High
Time2153Z 02/23Z 03/00Z 03/01Z 03/02Z 03/03Z 03/04Z 03/05Z 03/06Z 03/07Z 03/08Z 03/09Z 03/10Z 03/11Z>>
Type OBS PRVL PRVL PRVL PRVL PRVL PRVL PRVL PRVL PRVL PRVL PRVL PRVL PRVL
VIS 7 >6 >6 >6 >6 >6 >6 >6 >6 >6 >6 >6 >6 >6
CIG -- -- -- -- -- -- -- -- -- -- -- -- -- --
Cover FEW SCT SCT SCT FEW FEW FEW FEW FEW FEW FEW FEW FEW FEW
FltCat VFR VFR VFR VFR VFR VFR VFR VFR VFR VFR VFR VFR VFR VFR
WX -- -- -- -- -- -- -- -- -- -- -- -- -- --
WDir 70 50 50 50 100 100 100 100 100 100 100 100 100 100
WSpd 8 9 9 9 6 6 6 6 6 6 6 6 6 6
WGst -- -- -- -- -- -- -- -- -- -- -- -- -- --
Raw TAF
KINK 022221Z 0222/0318 05009KT P6SM SCT060 SCT250
  FM030200 10006KT P6SM FEW250


Raw METAR
KINK 022153Z AUTO 07008KT 7SM FEW050 29/16 A3013 RMK AO2 SLP158 T02940161
KINK 022053Z AUTO 02007KT 6SM HZ SCT047 OVC080 27/16 A3016 RMK AO2 SLP171 T02720161 58017
KINK 021953Z AUTO 06011KT 5SM HZ BKN043 OVC055 27/17 A3018 RMK AO2 SLP179 T02670167

METAR Board
Radar Display
Forecast Discussion
For situational awareness. Not to be used for flight planning purposes.